KDAY/DAY METAR and TAF weather

Enter ICAO airport designator
Station Type Date Time Source
KDAY METAR 2018/12/10 18:56 UTC NOAA

KDAY 101856Z 00000KT 4SM BR OVC010 M04/M06 A3024 RMK AO2 SLP256 T10391061


Station Type Date Time Source
KDAY Decoded METAR 2018/12/10 18:56 UTC NOAA

COX DAYTON INTERNATIONAL, OH, United States (KDAY) 39-54N 084-13W 305M
Dec 10, 2018 - 01:56 PM EST / 2018.12.10 1856 UTC
Wind: Calm:0
Visibility: 4 mile(s):0
Sky conditions: overcast
Weather: mist
Temperature: 25.0 F (-3.9 C)
Dew Point: 21.0 F (-6.1 C)
Relative Humidity: 84%
Pressure (altimeter): 30.24 in. Hg (1024 hPa)
ob: KDAY 101856Z 00000KT 4SM BR OVC010 M04/M06 A3024 RMK AO2 SLP256 T10391061
cycle: 19

Station Type Date Time Source
KDAY TAF 2018/12/10 20:45 UTC NOAA

TAF
AMD KDAY 101945Z 1020/1118 35006KT 5SM BR OVC010
FM102300 30004KT P6SM OVC012
FM110400 24005KT 5SM BR SCT015
FM111300 24012KT P6SM SCT250


Example: see airport list